createdAt,value
2022-08-05T00:00:52.535Z,50.36
2022-08-05T00:03:56.832Z,50.40
2022-08-05T00:07:00.379Z,50.49
2022-08-05T00:10:27.137Z,50.49
2022-08-05T00:13:39.354Z,50.58
2022-08-05T00:16:52.151Z,50.68
2022-08-05T00:20:02.444Z,50.48
2022-08-05T00:23:12.917Z,50.58
2022-08-05T00:26:17.252Z,50.53
2022-08-05T00:29:25.420Z,50.55
2022-08-05T00:32:28.701Z,50.66
2022-08-05T00:35:33.305Z,50.67
2022-08-05T00:38:36.865Z,50.87
2022-08-05T00:41:46.767Z,50.93
2022-08-05T00:44:55.635Z,50.99
2022-08-05T00:48:05.636Z,51.18
2022-08-05T00:51:50.559Z,51.37
2022-08-05T00:54:31.814Z,51.35
2022-08-05T00:57:38.257Z,51.41
2022-08-05T01:00:57.693Z,51.47
2022-08-05T01:04:01.315Z,51.60
2022-08-05T01:07:05.113Z,51.50
2022-08-05T01:10:13.625Z,51.68
2022-08-05T01:14:00.334Z,51.64
2022-08-05T01:17:10.783Z,51.92
2022-08-05T01:20:22.500Z,52.03
2022-08-05T01:23:34.794Z,52.12
2022-08-05T01:27:19.707Z,52.16
2022-08-05T01:30:34.041Z,52.28
2022-08-05T01:34:01.998Z,52.21
2022-08-05T01:37:25.092Z,52.35
2022-08-05T01:40:30.752Z,52.53
2022-08-05T01:43:35.815Z,52.54
2022-08-05T01:46:42.488Z,52.66
2022-08-05T01:50:01.426Z,52.69
2022-08-05T01:53:11.953Z,52.78
2022-08-05T01:58:11.869Z,52.71
2022-08-05T01:59:47.224Z,52.79
2022-08-05T02:02:55.403Z,52.87
2022-08-05T02:06:00.843Z,53.00
2022-08-05T02:09:05.725Z,52.90
2022-08-05T02:12:17.014Z,52.93
2022-08-05T02:15:25.644Z,52.96
2022-08-05T02:18:42.694Z,52.98
2022-08-05T02:21:52.967Z,53.08
2022-08-05T02:25:06.353Z,53.06
2022-08-05T02:28:13.725Z,53.19
2022-08-05T02:31:24.612Z,53.28
2022-08-05T02:34:31.561Z,53.36
2022-08-05T02:37:35.948Z,53.36
2022-08-05T02:40:42.783Z,53.52
2022-08-05T02:44:02.662Z,53.47
2022-08-05T02:47:13.128Z,53.55
2022-08-05T02:50:19.008Z,53.56
2022-08-05T02:53:22.405Z,53.63
2022-08-05T02:56:27.372Z,53.72
2022-08-05T02:59:31.258Z,53.73
2022-08-05T03:02:52.728Z,53.79
2022-08-05T03:06:55.218Z,53.78
2022-08-05T03:09:27.208Z,53.82
2022-08-05T03:12:41.353Z,54.00
2022-08-05T03:15:48.084Z,54.08
2022-08-05T03:18:54.809Z,54.08
2022-08-05T03:21:57.710Z,54.19
2022-08-05T03:25:11.522Z,54.22
2022-08-05T03:28:27.435Z,54.24
2022-08-05T03:31:57.045Z,54.35
2022-08-05T03:34:54.520Z,54.46
2022-08-05T03:37:59.260Z,54.48
2022-08-05T03:41:08.282Z,54.52
2022-08-05T03:44:13.801Z,54.57
2022-08-05T03:47:23.191Z,54.65
2022-08-05T03:50:33.760Z,54.88
2022-08-05T03:55:54.776Z,54.95
2022-08-05T03:57:15.961Z,54.96
2022-08-05T04:00:25.980Z,55.01
2022-08-05T04:03:35.915Z,55.09
2022-08-05T04:06:47.418Z,55.16
2022-08-05T04:09:53.585Z,55.38
2022-08-05T04:12:58.836Z,55.52
2022-08-05T04:16:04.506Z,55.58
2022-08-05T04:19:11.799Z,55.77
2022-08-05T04:22:15.842Z,55.83
2022-08-05T04:25:56.428Z,55.89
2022-08-05T04:28:51.982Z,56.08
2022-08-05T04:31:56.855Z,56.22
2022-08-05T04:35:00.264Z,56.21
2022-08-05T04:38:06.739Z,56.14
2022-08-05T04:41:10.424Z,56.30
2022-08-05T04:44:14.125Z,56.31
2022-08-05T04:47:20.203Z,56.33
2022-08-05T04:50:37.309Z,56.37
2022-08-05T04:53:46.440Z,56.09
2022-08-05T04:56:49.336Z,56.15
2022-08-05T04:59:52.272Z,56.00
2022-08-05T05:02:56.593Z,55.78
2022-08-05T05:06:38.883Z,55.81
2022-08-05T05:09:25.769Z,55.77
2022-08-05T05:12:29.255Z,55.88
2022-08-05T05:15:58.733Z,55.81
2022-08-05T05:19:17.585Z,55.90
2022-08-05T05:22:23.782Z,56.08
2022-08-05T05:25:40.287Z,56.10
2022-08-05T05:28:44.887Z,56.13
2022-08-05T05:31:48.281Z,56.24
2022-08-05T05:34:51.436Z,56.29
2022-08-05T05:38:01.377Z,55.98
2022-08-05T05:41:05.198Z,55.70
2022-08-05T05:44:34.481Z,55.63
2022-08-05T05:48:06.409Z,55.54
2022-08-05T05:50:58.188Z,55.41
2022-08-05T05:54:01.061Z,55.23
2022-08-05T05:57:04.064Z,54.80
2022-08-05T06:00:19.347Z,54.63
2022-08-05T06:03:40.255Z,54.66
2022-08-05T06:06:47.529Z,54.69
2022-08-05T06:10:00.565Z,54.46
2022-08-05T06:13:06.347Z,54.20
2022-08-05T06:16:28.320Z,54.20
2022-08-05T06:19:35.346Z,54.25
2022-08-05T06:22:41.640Z,54.00
2022-08-05T06:26:12.944Z,54.21
2022-08-05T06:29:25.082Z,54.26
2022-08-05T06:32:31.272Z,54.03
2022-08-05T06:36:07.370Z,54.00
2022-08-05T06:38:57.437Z,53.88
2022-08-05T06:42:03.870Z,53.94
2022-08-05T06:45:08.463Z,54.02
2022-08-05T06:48:52.558Z,53.84
2022-08-05T06:51:34.945Z,53.78
2022-08-05T06:54:38.956Z,53.72
2022-08-05T06:57:57.371Z,53.88
2022-08-05T07:01:06.608Z,53.81
2022-08-05T07:04:10.443Z,53.59
2022-08-05T07:07:13.342Z,53.21
2022-08-05T07:10:18.171Z,52.99
2022-08-05T07:13:59.615Z,52.94
2022-08-05T07:18:01.493Z,53.01
2022-08-05T07:20:37.196Z,52.50
2022-08-05T07:23:50.030Z,52.42
2022-08-05T07:26:55.206Z,52.03
2022-08-05T07:30:27.579Z,51.79
2022-08-05T07:33:36.622Z,51.86
2022-08-05T07:36:40.982Z,51.54
2022-08-05T07:40:04.063Z,51.23
2022-08-05T07:43:07.427Z,51.13
2022-08-05T07:46:26.277Z,50.83
2022-08-05T07:49:29.510Z,50.69
2022-08-05T07:52:32.416Z,50.42
2022-08-05T07:56:04.847Z,50.15
2022-08-05T07:58:59.186Z,49.91
2022-08-05T08:02:03.163Z,48.94
2022-08-05T08:05:06.559Z,48.89
2022-08-05T08:08:12.218Z,49.25
2022-08-05T08:11:16.055Z,48.68
2022-08-05T08:14:19.495Z,48.39
2022-08-05T08:17:23.100Z,48.18
2022-08-05T08:20:59.805Z,47.58
2022-08-05T08:24:02.726Z,47.61
2022-08-05T08:27:07.582Z,47.22
2022-08-05T08:30:30.138Z,47.30
2022-08-05T08:33:37.701Z,47.30
2022-08-05T08:36:47.617Z,47.20
2022-08-05T08:39:55.558Z,46.91
2022-08-05T08:45:16.652Z,46.81
2022-08-05T08:46:24.614Z,46.55
2022-08-05T08:50:13.042Z,46.24
2022-08-05T08:53:03.446Z,45.92
2022-08-05T08:56:15.018Z,45.42
2022-08-05T08:59:21.055Z,45.44
2022-08-05T09:02:26.932Z,44.67
2022-08-05T09:05:38.297Z,44.70
2022-08-05T09:08:52.949Z,44.59
2022-08-05T09:12:03.248Z,44.78
2022-08-05T09:15:12.340Z,44.15
2022-08-05T09:18:18.434Z,43.57
2022-08-05T09:22:23.298Z,43.31
2022-08-05T09:25:00.931Z,42.45
2022-08-05T09:28:23.472Z,42.21
2022-08-05T09:32:40.886Z,41.95
2022-08-05T09:34:55.830Z,41.69
2022-08-05T09:38:18.485Z,41.51
2022-08-05T09:41:22.117Z,40.74
2022-08-05T09:44:43.645Z,40.64
2022-08-05T09:47:55.930Z,40.58
2022-08-05T09:51:02.232Z,40.41
2022-08-05T09:54:08.497Z,40.61
2022-08-05T09:57:28.885Z,39.94
2022-08-05T10:00:38.411Z,39.14
2022-08-05T10:03:58.804Z,39.16
2022-08-05T10:07:06.134Z,38.43
2022-08-05T10:10:28.150Z,38.70
2022-08-05T10:13:45.713Z,39.18
2022-08-05T10:16:52.800Z,38.85
2022-08-05T10:20:04.290Z,38.53
2022-08-05T10:23:55.479Z,37.84
2022-08-05T10:26:51.893Z,37.91
2022-08-05T10:30:06.893Z,37.05
2022-08-05T10:33:19.917Z,36.36
2022-08-05T10:36:26.047Z,36.45
2022-08-05T10:39:59.477Z,36.37
2022-08-05T10:43:02.670Z,36.87
2022-08-05T10:46:10.449Z,37.27
2022-08-05T10:49:16.660Z,36.49
2022-08-05T10:52:49.558Z,35.66
2022-08-05T10:56:21.411Z,35.39
2022-08-05T11:00:02.220Z,36.06
2022-08-05T11:03:24.893Z,35.40
2022-08-05T11:06:30.780Z,35.56
2022-08-05T11:09:46.559Z,35.35
2022-08-05T11:12:55.243Z,34.79
2022-08-05T11:16:21.736Z,34.82
2022-08-05T11:20:10.449Z,34.35
2022-08-05T11:22:54.831Z,33.49
2022-08-05T11:26:11.967Z,34.02
2022-08-05T11:29:37.306Z,33.01
2022-08-05T11:32:40.398Z,33.37
2022-08-05T11:36:02.881Z,33.59
2022-08-05T11:39:13.537Z,34.25
2022-08-05T11:42:22.473Z,33.77
2022-08-05T11:46:27.089Z,33.08
2022-08-05T11:48:55.771Z,32.72
2022-08-05T11:52:11.413Z,32.55
2022-08-05T11:55:15.528Z,32.61
2022-08-05T11:58:40.818Z,32.55
2022-08-05T12:02:24.034Z,33.21
2022-08-05T12:05:32.363Z,33.83
2022-08-05T12:08:48.016Z,33.67
2022-08-05T12:11:54.772Z,33.10
2022-08-05T12:14:57.778Z,32.14
2022-08-05T12:18:09.887Z,31.75
2022-08-05T12:21:17.331Z,31.40
2022-08-05T12:24:21.450Z,31.55
2022-08-05T12:27:32.664Z,31.71
2022-08-05T12:30:38.626Z,31.05
2022-08-05T12:33:49.212Z,30.70
2022-08-05T12:36:53.753Z,31.53
2022-08-05T12:40:03.260Z,31.36
2022-08-05T12:43:20.565Z,30.91
2022-08-05T12:46:28.933Z,30.73
2022-08-05T12:50:02.253Z,30.91
2022-08-05T12:53:09.706Z,30.78
2022-08-05T12:56:34.307Z,30.68
2022-08-05T13:01:57.890Z,30.66
2022-08-05T13:03:18.451Z,30.51
2022-08-05T13:06:21.398Z,30.76
2022-08-05T13:09:27.890Z,30.65
2022-08-05T13:12:31.631Z,30.11
2022-08-05T13:15:35.891Z,29.63
2022-08-05T13:18:58.413Z,29.98
2022-08-05T13:22:01.693Z,30.48
2022-08-05T13:25:19.034Z,30.28
2022-08-05T13:28:24.740Z,29.99
2022-08-05T13:31:33.929Z,30.88
2022-08-05T13:34:52.075Z,30.45
2022-08-05T13:37:55.745Z,30.74
2022-08-05T13:41:00.201Z,30.83
2022-08-05T13:44:03.745Z,31.11
2022-08-05T13:47:09.091Z,30.45
2022-08-05T13:50:29.735Z,30.92
2022-08-05T13:53:33.580Z,31.28
2022-08-05T13:56:52.037Z,30.98
2022-08-05T13:59:57.694Z,30.55
2022-08-05T14:03:12.279Z,30.98
2022-08-05T14:06:26.212Z,31.34
2022-08-05T14:09:29.967Z,31.12
2022-08-05T14:12:33.075Z,31.13
2022-08-05T14:16:07.313Z,31.19
2022-08-05T14:19:04.628Z,31.70
2022-08-05T14:22:11.359Z,32.03
2022-08-05T14:25:19.047Z,31.78
2022-08-05T14:28:26.987Z,31.85
2022-08-05T14:32:03.296Z,31.74
2022-08-05T14:34:53.858Z,32.18
2022-08-05T14:38:00.987Z,32.18
2022-08-05T14:41:06.016Z,31.97
2022-08-05T14:44:20.585Z,32.01
2022-08-05T14:48:02.947Z,31.57
2022-08-05T14:50:48.088Z,31.63
2022-08-05T14:54:25.846Z,31.94
2022-08-05T14:57:15.557Z,32.41
2022-08-05T15:00:21.447Z,31.88
2022-08-05T15:03:34.017Z,31.51
2022-08-05T15:06:42.085Z,30.98
2022-08-05T15:09:54.464Z,31.13
2022-08-05T15:13:03.389Z,31.11
2022-08-05T15:16:06.958Z,31.15
2022-08-05T15:19:23.305Z,30.40
2022-08-05T15:22:28.203Z,30.47
2022-08-05T15:25:41.336Z,30.24
2022-08-05T15:28:54.495Z,29.76
2022-08-05T15:32:02.151Z,29.87
2022-08-05T15:35:09.999Z,29.42
2022-08-05T15:38:36.020Z,29.46
2022-08-05T15:41:58.549Z,29.32
2022-08-05T15:45:01.592Z,29.81
2022-08-05T15:48:04.905Z,29.96
2022-08-05T15:51:09.858Z,30.25
2022-08-05T15:54:15.141Z,30.37
2022-08-05T15:57:19.893Z,30.98
2022-08-05T16:00:26.518Z,31.17
2022-08-05T16:03:35.710Z,31.44
2022-08-05T16:06:44.201Z,31.71
2022-08-05T16:09:48.691Z,31.68
2022-08-05T16:12:51.651Z,31.90
2022-08-05T16:15:55.406Z,31.77
2022-08-05T16:18:58.432Z,32.27
2022-08-05T16:22:04.098Z,32.75
2022-08-05T16:25:09.558Z,34.03
2022-08-05T16:28:13.731Z,33.87
2022-08-05T16:31:18.555Z,34.41
2022-08-05T16:34:22.870Z,34.73
2022-08-05T16:38:03.293Z,35.84
2022-08-05T16:40:55.209Z,36.09
2022-08-05T16:43:58.852Z,36.19
2022-08-05T16:47:02.310Z,36.55
2022-08-05T16:50:06.449Z,36.80
2022-08-05T16:53:12.347Z,37.27
2022-08-05T16:56:16.092Z,38.12
2022-08-05T16:59:18.926Z,38.02
2022-08-05T17:02:23.645Z,37.78
2022-08-05T17:05:31.726Z,38.27
2022-08-05T17:08:51.833Z,38.90
2022-08-05T17:11:59.422Z,39.23
2022-08-05T17:15:03.683Z,39.34
2022-08-05T17:18:06.598Z,39.44
2022-08-05T17:21:17.453Z,39.48
2022-08-05T17:24:35.010Z,40.10
2022-08-05T17:27:41.950Z,40.26
2022-08-05T17:30:50.648Z,40.53
2022-08-05T17:33:56.023Z,40.90
2022-08-05T17:37:00.883Z,41.14
2022-08-05T17:40:10.990Z,41.67
2022-08-05T17:43:15.719Z,42.03
2022-08-05T17:46:20.314Z,42.04
2022-08-05T17:49:24.015Z,42.36
2022-08-05T17:52:29.276Z,42.61
2022-08-05T17:55:38.081Z,42.87
2022-08-05T17:58:43.346Z,43.02
2022-08-05T18:01:50.417Z,43.16
2022-08-05T18:04:55.131Z,43.47
2022-08-05T18:07:58.209Z,43.77
2022-08-05T18:11:03.179Z,43.83
2022-08-05T18:14:13.390Z,44.15
2022-08-05T18:18:01.597Z,44.58
2022-08-05T18:20:46.883Z,44.88
2022-08-05T18:23:53.922Z,45.09
2022-08-05T18:26:57.098Z,45.18
2022-08-05T18:30:01.122Z,45.64
2022-08-05T18:33:04.122Z,45.79
2022-08-05T18:36:15.137Z,46.00
2022-08-05T18:39:42.399Z,46.07
2022-08-05T18:42:41.528Z,46.25
2022-08-05T18:45:44.761Z,46.56
2022-08-05T18:48:52.026Z,46.44
2022-08-05T18:52:13.762Z,46.48
2022-08-05T18:55:17.820Z,46.70
2022-08-05T18:58:27.169Z,46.98
2022-08-05T19:01:47.200Z,46.90
2022-08-05T19:05:01.516Z,46.95
2022-08-05T19:08:15.400Z,47.28
2022-08-05T19:11:28.450Z,47.38
2022-08-05T19:15:00.799Z,47.45
2022-08-05T19:18:09.090Z,47.76
2022-08-05T19:21:12.875Z,47.65
2022-08-05T19:24:15.787Z,47.74
2022-08-05T19:27:19.140Z,47.80
2022-08-05T19:30:22.550Z,48.10
2022-08-05T19:33:35.391Z,47.99
2022-08-05T19:36:39.424Z,48.19
2022-08-05T19:39:51.435Z,48.26
2022-08-05T19:43:04.597Z,48.31
2022-08-05T19:46:29.446Z,48.35
2022-08-05T19:49:31.864Z,48.51
2022-08-05T19:52:34.858Z,48.49
2022-08-05T19:56:15.640Z,48.57
2022-08-05T19:59:54.889Z,48.75
2022-08-05T20:02:30.470Z,48.83
2022-08-05T20:05:50.398Z,48.94
2022-08-05T20:08:54.882Z,48.93
2022-08-05T20:11:59.259Z,49.08
2022-08-05T20:15:06.812Z,49.17
2022-08-05T20:18:34.018Z,49.06
2022-08-05T20:21:38.388Z,48.97
2022-08-05T20:24:41.462Z,49.05
2022-08-05T20:27:45.037Z,49.15
2022-08-05T20:30:47.982Z,49.16
2022-08-05T20:33:52.665Z,49.22
2022-08-05T20:36:56.929Z,49.04
2022-08-05T20:40:00.358Z,49.04
2022-08-05T20:43:04.645Z,48.95
2022-08-05T20:46:10.251Z,48.95
2022-08-05T20:49:24.152Z,49.02
2022-08-05T20:52:29.049Z,48.96
2022-08-05T20:55:56.479Z,48.95
2022-08-05T20:58:54.961Z,48.83
2022-08-05T21:01:58.183Z,49.05
2022-08-05T21:05:02.642Z,49.10
2022-08-05T21:08:05.651Z,49.16
2022-08-05T21:11:11.574Z,49.35
2022-08-05T21:14:15.049Z,49.44
2022-08-05T21:17:18.101Z,49.53
2022-08-05T21:20:32.627Z,49.47
2022-08-05T21:23:37.502Z,49.60
2022-08-05T21:26:43.347Z,49.70
2022-08-05T21:29:50.879Z,49.69
2022-08-05T21:32:53.886Z,49.98
2022-08-05T21:35:59.159Z,50.10
2022-08-05T21:39:02.226Z,50.23
2022-08-05T21:42:05.255Z,50.26
2022-08-05T21:45:10.905Z,50.24
2022-08-05T21:48:14.060Z,50.51
2022-08-05T21:52:16.677Z,50.47
2022-08-05T21:54:41.442Z,50.68
2022-08-05T21:57:44.698Z,50.82
2022-08-05T22:00:51.107Z,50.88
2022-08-05T22:03:54.635Z,50.74
2022-08-05T22:06:57.465Z,50.80
2022-08-05T22:10:00.380Z,50.83
2022-08-05T22:13:08.867Z,50.91
2022-08-05T22:16:51.011Z,51.03
2022-08-05T22:20:02.180Z,51.01
2022-08-05T22:24:01.694Z,51.30
2022-08-05T22:27:10.930Z,51.14
2022-08-05T22:30:19.562Z,51.23
2022-08-05T22:33:57.880Z,51.21
2022-08-05T22:36:45.818Z,51.35
2022-08-05T22:39:51.126Z,51.35
2022-08-05T22:42:58.503Z,51.36
2022-08-05T22:46:07.265Z,51.23
2022-08-05T22:50:17.597Z,51.07
2022-08-05T22:52:38.702Z,51.20
2022-08-05T22:55:56.749Z,51.09
2022-08-05T22:59:04.181Z,51.09
2022-08-05T23:02:29.193Z,51.22
2022-08-05T23:05:36.126Z,51.20
2022-08-05T23:08:39.126Z,51.10
2022-08-05T23:11:46.663Z,51.04
2022-08-05T23:14:53.073Z,51.16
2022-08-05T23:18:00.510Z,51.14
2022-08-05T23:21:05.657Z,51.16
2022-08-05T23:24:13.073Z,51.11
2022-08-05T23:27:16.845Z,51.13
2022-08-05T23:30:26.937Z,51.10
2022-08-05T23:34:04.361Z,51.17
2022-08-05T23:36:54.875Z,51.23
2022-08-05T23:39:57.829Z,51.32
2022-08-05T23:43:00.738Z,51.28
2022-08-05T23:46:19.807Z,51.35
2022-08-05T23:49:34.088Z,51.45
2022-08-05T23:52:49.781Z,51.64
2022-08-05T23:55:53.590Z,51.68
2022-08-05T23:58:58.723Z,51.82
